Time;durP1;ratioP1;P1;durP2;ratioP2;P2;SDS_P1;SDS_P2;PMS_P1;PMS_P2;Temp;Humidity;BMP_temperature;BMP_pressure;BME280_temperature;BME280_humidity;BME280_pressure;Samples;Min_cycle;Max_cycle;Signal;HPM_P1;HPM_P2
2022/08/16 00:00:51;;;;;;;13.77;11.10;;;21.00;99.90;;;;;;5036517;28;20061;-72
2022/08/16 00:03:16;;;;;;;14.45;10.68;;;21.00;99.90;;;;;;5036808;28;20045;-71
2022/08/16 00:05:43;;;;;;;12.38;11.07;;;20.90;99.90;;;;;;5036548;28;20056;-72
2022/08/16 00:08:09;;;;;;;12.43;11.13;;;20.70;99.90;;;;;;5036504;28;20037;-71
2022/08/16 00:10:35;;;;;;;15.50;12.07;;;20.80;99.90;;;;;;5001885;28;20053;-71
2022/08/16 00:13:04;;;;;;;15.32;12.80;;;20.70;99.90;;;;;;5036923;28;20048;-72
2022/08/16 00:15:37;;;;;;;15.13;12.18;;;20.70;99.90;;;;;;5036688;28;20162;-72
2022/08/16 00:18:04;;;;;;;16.60;11.75;;;20.70;99.90;;;;;;5036667;28;20056;-72
2022/08/16 00:20:31;;;;;;;15.90;12.48;;;20.60;99.90;;;;;;5036074;28;20089;-71
2022/08/16 00:22:57;;;;;;;15.43;13.35;;;20.60;99.90;;;;;;5036594;28;20056;-71
2022/08/16 00:25:24;;;;;;;16.40;13.45;;;20.60;99.90;;;;;;5036894;28;20046;-71
2022/08/16 00:27:50;;;;;;;18.02;13.60;;;20.60;99.90;;;;;;5036662;28;20064;-71
2022/08/16 00:30:17;;;;;;;16.25;13.18;;;20.60;99.90;;;;;;5036027;28;20434;-71
2022/08/16 00:32:46;;;;;;;17.85;14.18;;;20.70;99.90;;;;;;5018907;28;20045;-71
2022/08/16 00:35:15;;;;;;;19.20;14.35;;;20.70;99.90;;;;;;5035080;28;20156;-71
2022/08/16 00:37:43;;;;;;;18.58;13.98;;;20.70;99.90;;;;;;5035627;28;20041;-71
2022/08/16 00:40:09;;;;;;;15.25;13.30;;;20.70;99.90;;;;;;5036364;28;20053;-71
2022/08/16 00:42:35;;;;;;;15.07;13.07;;;20.70;99.90;;;;;;5036092;28;20057;-71
2022/08/16 00:45:08;;;;;;;18.40;13.05;;;20.70;99.90;;;;;;5036182;28;20102;-72
2022/08/16 00:47:35;;;;;;;16.02;14.18;;;20.60;99.90;;;;;;5018360;28;20468;-72
2022/08/16 00:50:01;;;;;;;16.95;13.68;;;20.60;99.90;;;;;;5035833;28;20056;-72
2022/08/16 00:52:27;;;;;;;16.60;14.75;;;20.60;99.90;;;;;;5017996;28;20057;-71
2022/08/16 00:54:52;;;;;;;17.10;13.68;;;20.60;99.90;;;;;;5035720;28;20124;-71
2022/08/16 00:57:18;;;;;;;18.75;13.38;;;20.60;99.90;;;;;;5036093;28;20089;-72
2022/08/16 00:59:44;;;;;;;16.30;13.25;;;20.50;99.90;;;;;;5035857;28;20045;-71
2022/08/16 01:02:10;;;;;;;16.17;13.30;;;20.60;99.90;;;;;;5035826;28;20056;-71
2022/08/16 01:04:36;;;;;;;18.48;13.80;;;20.60;99.90;;;;;;5035770;28;20132;-71
2022/08/16 01:07:04;;;;;;;15.85;14.13;;;20.60;99.90;;;;;;5035551;28;20081;-72
2022/08/16 01:09:33;;;;;;;15.93;14.27;;;20.60;99.90;;;;;;5035510;28;20132;-71
2022/08/16 01:11:59;;;;;;;17.65;15.15;;;20.60;99.90;;;;;;5035202;28;20492;-72
2022/08/16 01:14:33;;;;;;;15.75;14.05;;;20.50;99.90;;;;;;5035049;28;20049;-71
2022/08/16 01:17:01;;;;;;;14.63;13.05;;;20.50;99.90;;;;;;5035294;28;20045;-71
2022/08/16 01:19:38;;;;;;;18.48;15.00;;;20.50;99.90;;;;;;5035122;28;20472;-72
2022/08/16 01:22:32;;;;;;;17.55;14.30;;;20.50;99.90;;;;;;5035041;28;20045;-71
2022/08/16 01:25:20;;;;;;;17.27;13.48;;;20.40;99.90;;;;;;5035267;28;20085;-72
2022/08/16 01:27:50;;;;;;;18.38;14.77;;;20.40;99.90;;;;;;5034246;28;20134;-71
2022/08/16 01:30:22;;;;;;;15.77;14.10;;;20.30;99.90;;;;;;5035156;28;20107;-71
2022/08/16 01:32:50;;;;;;;17.60;14.40;;;20.30;99.90;;;;;;5035306;28;20057;-72
2022/08/16 01:35:23;;;;;;;19.67;14.13;;;20.20;99.90;;;;;;5035096;28;20204;-72
2022/08/16 01:37:53;;;;;;;16.05;13.05;;;20.20;99.90;;;;;;5034575;28;20041;-72
2022/08/16 01:40:23;;;;;;;18.33;13.93;;;20.20;99.90;;;;;;5017674;28;20084;-71
2022/08/16 01:42:49;;;;;;;16.55;13.52;;;20.20;99.90;;;;;;5035321;28;20419;-71
2022/08/16 01:45:17;;;;;;;14.93;13.32;;;20.20;99.90;;;;;;5035033;28;20034;-71
2022/08/16 01:47:44;;;;;;;16.65;13.38;;;20.30;99.90;;;;;;5017629;28;20045;-71
2022/08/16 01:50:10;;;;;;;14.88;13.20;;;20.20;99.90;;;;;;5034944;28;20054;-72
2022/08/16 01:52:36;;;;;;;15.93;14.05;;;20.20;99.90;;;;;;5034528;28;20050;-71
2022/08/16 01:55:04;;;;;;;17.55;14.32;;;20.20;99.90;;;;;;5034957;28;20469;-71
2022/08/16 01:57:29;;;;;;;18.30;14.43;;;20.20;99.90;;;;;;5034879;28;20056;-72
2022/08/16 01:59:55;;;;;;;18.30;14.30;;;20.20;99.90;;;;;;5034771;28;20450;-71
2022/08/16 02:02:24;;;;;;;16.77;14.18;;;20.20;99.90;;;;;;5035034;28;20438;-71
2022/08/16 02:04:50;;;;;;;14.95;13.35;;;20.20;99.90;;;;;;5034931;28;20041;-71
2022/08/16 02:07:17;;;;;;;17.42;13.52;;;20.20;99.90;;;;;;5033964;28;20056;-72
2022/08/16 02:09:44;;;;;;;18.52;14.25;;;20.20;99.90;;;;;;5034589;28;20037;-71
2022/08/16 02:12:11;;;;;;;18.65;13.20;;;20.10;99.90;;;;;;5034854;28;20041;-71
2022/08/16 02:14:37;;;;;;;17.95;14.57;;;20.10;99.90;;;;;;5034680;28;20049;-71
2022/08/16 02:17:06;;;;;;;15.13;13.52;;;20.10;99.90;;;;;;5017333;28;20092;-70
2022/08/16 02:19:35;;;;;;;15.77;14.07;;;20.00;99.90;;;;;;5034642;28;20060;-72
2022/08/16 02:22:03;;;;;;;15.65;13.93;;;20.00;99.90;;;;;;5017722;28;20075;-71
2022/08/16 02:24:29;;;;;;;19.40;14.73;;;19.90;99.90;;;;;;5035808;28;20121;-71
2022/08/16 02:26:55;;;;;;;16.90;14.15;;;19.90;99.90;;;;;;4987643;28;20049;-71
2022/08/16 02:29:21;;;;;;;15.63;13.95;;;19.90;99.90;;;;;;5038587;28;20441;-71
2022/08/16 02:31:49;;;;;;;18.75;14.95;;;19.80;99.90;;;;;;5038548;28;20057;-71
2022/08/16 02:34:18;;;;;;;15.05;13.35;;;19.80;99.90;;;;;;5021120;28;20065;-72
2022/08/16 02:36:45;;;;;;;20.08;15.00;;;19.70;99.90;;;;;;5038519;28;20045;-72
2022/08/16 02:39:13;;;;;;;17.02;13.88;;;19.70;99.90;;;;;;5038133;28;20052;-71
2022/08/16 02:41:41;;;;;;;17.73;14.25;;;19.60;99.90;;;;;;5039138;28;20091;-71
2022/08/16 02:44:10;;;;;;;16.80;13.82;;;19.60;99.90;;;;;;5038551;28;20041;-71
2022/08/16 02:46:36;;;;;;;18.08;14.20;;;19.70;99.90;;;;;;5038169;28;20152;-71
2022/08/16 02:49:04;;;;;;;20.58;15.00;;;19.60;99.90;;;;;;5038025;28;20362;-71
2022/08/16 02:51:30;;;;;;;17.60;15.25;;;19.60;99.90;;;;;;5020835;28;20045;-71
2022/08/16 02:53:55;;;;;;;22.33;15.60;;;19.60;99.90;;;;;;5037842;28;20049;-72
2022/08/16 02:56:21;;;;;;;21.40;15.85;;;19.60;99.90;;;;;;5037890;28;20052;-71
2022/08/16 02:58:49;;;;;;;21.05;16.90;;;19.60;99.90;;;;;;5038023;28;20045;-72
2022/08/16 03:01:19;;;;;;;20.13;16.63;;;19.50;99.90;;;;;;5003021;28;20451;-72
2022/08/16 03:03:45;;;;;;;19.08;16.77;;;19.50;99.90;;;;;;5020833;28;20049;-72
2022/08/16 03:06:10;;;;;;;18.23;16.25;;;19.50;99.90;;;;;;5037860;28;20045;-71
2022/08/16 03:08:36;;;;;;;17.92;14.65;;;19.40;99.90;;;;;;5036904;28;20049;-71
2022/08/16 03:11:02;;;;;;;19.92;17.23;;;19.40;99.90;;;;;;5037785;28;20044;-71
2022/08/16 03:13:28;;;;;;;17.92;15.68;;;19.30;99.90;;;;;;5037769;28;20335;-72
2022/08/16 03:15:54;;;;;;;19.15;16.35;;;19.30;99.90;;;;;;5037615;28;20131;-71
2022/08/16 03:18:19;;;;;;;18.42;16.20;;;19.30;99.90;;;;;;5038043;28;20091;-71
2022/08/16 03:20:45;;;;;;;19.20;16.63;;;19.30;99.90;;;;;;5037750;28;20530;-71
2022/08/16 03:23:11;;;;;;;17.95;16.05;;;19.20;99.90;;;;;;5037160;28;20442;-72
2022/08/16 03:25:37;;;;;;;22.55;18.58;;;19.20;99.90;;;;;;5037349;28;20056;-70
2022/08/16 03:28:04;;;;;;;19.00;16.48;;;19.10;99.90;;;;;;5037714;28;20046;-72
2022/08/16 03:30:32;;;;;;;20.25;17.10;;;19.20;99.90;;;;;;5037216;28;20053;-71
2022/08/16 03:32:58;;;;;;;17.70;15.65;;;19.10;99.90;;;;;;5037193;28;20095;-71
2022/08/16 03:35:28;;;;;;;22.45;16.38;;;19.10;99.90;;;;;;5036755;28;20076;-72
2022/08/16 03:37:57;;;;;;;20.98;16.55;;;19.00;99.90;;;;;;5037345;28;20045;-71
2022/08/16 03:40:23;;;;;;;18.58;15.68;;;19.00;99.90;;;;;;5036841;28;20092;-71
2022/08/16 03:42:49;;;;;;;18.42;16.23;;;19.00;99.90;;;;;;5037362;28;20053;-71
2022/08/16 03:45:14;;;;;;;19.75;16.13;;;19.00;99.90;;;;;;5037087;28;20037;-71
2022/08/16 03:47:41;;;;;;;20.90;16.60;;;18.90;99.90;;;;;;5037467;28;20080;-72
2022/08/16 03:50:07;;;;;;;18.48;16.42;;;18.80;99.90;;;;;;5037214;28;20045;-71
2022/08/16 03:52:34;;;;;;;18.13;16.08;;;18.80;99.90;;;;;;5036495;28;20037;-71
2022/08/16 03:55:00;;;;;;;20.73;15.90;;;18.80;99.90;;;;;;5037167;28;20401;-72
2022/08/16 03:57:28;;;;;;;25.05;19.02;;;18.70;99.90;;;;;;5037094;28;20157;-71
2022/08/16 03:59:54;;;;;;;21.00;17.48;;;18.70;99.90;;;;;;5040965;28;20095;-70
2022/08/16 04:02:23;;;;;;;18.63;16.63;;;18.70;99.90;;;;;;5014280;28;20045;-71
2022/08/16 04:04:49;;;;;;;20.63;17.55;;;18.60;99.90;;;;;;5042412;28;20032;-71
2022/08/16 04:07:15;;;;;;;22.48;18.20;;;18.70;99.90;;;;;;5056783;28;20369;-70
2022/08/16 04:09:41;;;;;;;20.23;17.65;;;18.60;99.90;;;;;;5044294;28;20071;-71
2022/08/16 04:12:09;;;;;;;22.83;16.90;;;18.60;99.90;;;;;;5036423;28;20513;-71
2022/08/16 04:14:34;;;;;;;19.00;16.88;;;18.60;99.90;;;;;;5036752;28;20041;-71
2022/08/16 04:17:00;;;;;;;19.40;17.30;;;18.50;99.90;;;;;;5036344;28;20123;-71
2022/08/16 04:19:26;;;;;;;24.85;18.02;;;18.50;99.90;;;;;;5036473;28;20042;-70
2022/08/16 04:21:52;;;;;;;20.60;18.35;;;18.50;99.90;;;;;;5036647;28;20053;-71
2022/08/16 04:24:18;;;;;;;22.92;19.20;;;18.50;99.90;;;;;;5036216;28;20055;-72
2022/08/16 04:26:44;;;;;;;20.40;17.95;;;18.40;99.90;;;;;;5035730;28;20393;-71
2022/08/16 04:29:10;;;;;;;20.75;18.20;;;18.40;99.90;;;;;;5036345;28;20048;-71
2022/08/16 04:31:36;;;;;;;22.05;17.35;;;18.40;99.90;;;;;;5036260;28;20053;-71
2022/08/16 04:34:02;;;;;;;23.67;17.65;;;18.40;99.90;;;;;;5036161;28;20377;-72
2022/08/16 04:36:28;;;;;;;19.80;17.48;;;18.40;99.90;;;;;;5035709;28;20053;-71
2022/08/16 04:38:54;;;;;;;19.80;16.77;;;18.40;99.90;;;;;;5036244;28;20499;-71
2022/08/16 04:41:21;;;;;;;22.33;16.38;;;18.40;99.90;;;;;;5036212;28;20064;-71
2022/08/16 04:43:47;;;;;;;19.85;17.40;;;18.40;99.90;;;;;;5036235;28;20369;-72
2022/08/16 04:46:14;;;;;;;22.75;18.50;;;18.40;99.90;;;;;;5035925;28;20057;-71
2022/08/16 04:48:40;;;;;;;22.60;18.70;;;18.40;99.90;;;;;;5035711;28;20033;-71
2022/08/16 04:51:06;;;;;;;23.92;18.75;;;18.40;99.90;;;;;;5035897;28;20365;-71
2022/08/16 04:53:32;;;;;;;22.65;17.55;;;18.40;99.90;;;;;;5036672;28;20041;-71
2022/08/16 04:55:59;;;;;;;19.83;17.73;;;18.40;99.90;;;;;;5035844;28;20159;-72
2022/08/16 04:58:25;;;;;;;21.73;17.80;;;18.40;99.90;;;;;;5018418;28;20041;-71
2022/08/16 05:00:50;;;;;;;21.42;17.55;;;18.40;99.90;;;;;;5035878;28;20049;-71
2022/08/16 05:03:16;;;;;;;19.73;17.63;;;18.60;99.90;;;;;;5035645;28;20358;-71
2022/08/16 05:05:42;;;;;;;24.70;18.75;;;18.40;99.90;;;;;;5035752;28;20049;-72
2022/08/16 05:08:08;;;;;;;21.95;19.02;;;18.50;99.90;;;;;;5035209;28;20120;-71
2022/08/16 05:10:35;;;;;;;22.05;18.08;;;18.50;99.90;;;;;;5035572;28;20073;-72
2022/08/16 05:13:01;;;;;;;24.33;19.00;;;18.50;99.90;;;;;;5035303;28;20045;-71
2022/08/16 05:15:28;;;;;;;23.48;17.55;;;18.60;99.90;;;;;;5018174;28;20106;-71
2022/08/16 05:17:54;;;;;;;22.63;17.92;;;18.60;99.90;;;;;;5018369;28;20103;-72
2022/08/16 05:20:20;;;;;;;23.58;17.88;;;18.60;99.90;;;;;;5035429;28;20092;-72
2022/08/16 05:22:46;;;;;;;19.20;16.40;;;18.70;99.90;;;;;;5017590;28;20080;-71
2022/08/16 05:25:12;;;;;;;21.85;19.00;;;18.80;99.90;;;;;;5035163;28;20045;-71
2022/08/16 05:27:39;;;;;;;23.90;18.50;;;18.80;99.90;;;;;;5035531;28;20132;-72
2022/08/16 05:30:07;;;;;;;23.55;17.50;;;18.90;99.90;;;;;;5035607;28;20345;-72
2022/08/16 05:32:35;;;;;;;20.88;17.75;;;18.90;99.90;;;;;;5035220;28;20054;-72
2022/08/16 05:35:02;;;;;;;20.42;16.75;;;18.90;99.90;;;;;;5035273;28;20063;-72
2022/08/16 05:37:27;;;;;;;22.52;18.92;;;19.00;99.90;;;;;;5034695;28;20041;-70
2022/08/16 05:39:53;;;;;;;25.42;18.35;;;19.10;99.90;;;;;;5035055;28;20052;-72
2022/08/16 05:42:18;;;;;;;20.85;18.63;;;19.10;99.90;;;;;;5034851;28;20037;-71
2022/08/16 05:44:44;;;;;;;22.65;19.58;;;19.20;99.90;;;;;;5018230;28;20055;-71
2022/08/16 05:47:09;;;;;;;23.02;18.85;;;19.30;99.90;;;;;;5035140;28;20091;-71
2022/08/16 05:49:35;;;;;;;21.10;17.88;;;19.50;99.90;;;;;;5037812;28;20048;-71
2022/08/16 05:52:01;;;;;;;28.98;22.60;;;20.10;99.90;;;;;;5035052;28;20056;-71
2022/08/16 05:54:27;;;;;;;22.20;19.80;;;21.10;99.90;;;;;;5034968;28;20417;-70
2022/08/16 05:56:55;;;;;;;23.33;20.83;;;22.30;99.90;;;;;;5035031;28;20056;-72
2022/08/16 05:59:20;;;;;;;20.45;17.40;;;23.30;99.90;;;;;;5034548;28;20048;-71
2022/08/16 06:01:49;;;;;;;19.70;17.60;;;24.10;99.90;;;;;;5034801;28;20045;-72
2022/08/16 06:04:15;;;;;;;23.98;17.00;;;24.90;99.90;;;;;;5034774;28;20077;-71
2022/08/16 06:06:41;;;;;;;19.45;16.08;;;25.60;99.90;;;;;;5034782;28;20094;-71
2022/08/16 06:09:07;;;;;;;20.50;14.32;;;26.40;99.90;;;;;;5034666;28;20389;-72
2022/08/16 06:11:33;;;;;;;16.08;13.80;;;26.90;99.90;;;;;;5034416;28;20045;-71
2022/08/16 06:13:58;;;;;;;17.55;14.00;;;27.40;99.90;;;;;;5034651;28;20048;-69
2022/08/16 06:16:24;;;;;;;15.55;13.43;;;27.60;99.90;;;;;;5034785;28;20331;-69
2022/08/16 06:18:49;;;;;;;15.63;11.90;;;28.10;99.90;;;;;;5034302;28;20068;-72
2022/08/16 06:21:15;;;;;;;16.15;12.32;;;28.50;99.90;;;;;;5034698;28;20049;-72
2022/08/16 06:23:41;;;;;;;16.45;12.43;;;28.70;99.40;;;;;;5034527;28;20051;-72
2022/08/16 06:26:06;;;;;;;12.50;11.10;;;29.00;98.90;;;;;;5033932;28;20053;-72
2022/08/16 06:28:32;;;;;;;12.32;10.25;;;29.30;96.80;;;;;;5034015;28;20077;-72
2022/08/16 06:30:58;;;;;;;14.93;10.43;;;29.60;97.90;;;;;;5034409;28;20103;-72
2022/08/16 06:33:24;;;;;;;12.90;10.65;;;29.90;97.50;;;;;;5034431;28;20081;-72
2022/08/16 06:35:51;;;;;;;18.15;10.45;;;30.30;96.90;;;;;;5034039;28;20093;-72
2022/08/16 06:38:18;;;;;;;14.48;11.10;;;30.40;95.20;;;;;;5033982;28;20041;-71
2022/08/16 06:40:43;;;;;;;13.70;9.98;;;30.20;96.00;;;;;;5034368;28;20049;-72
2022/08/16 06:43:09;;;;;;;15.30;10.85;;;29.70;95.80;;;;;;5033961;28;20097;-71
2022/08/16 06:45:36;;;;;;;13.38;10.05;;;29.10;96.00;;;;;;5034079;28;20443;-71
2022/08/16 06:48:04;;;;;;;13.05;11.23;;;28.40;96.40;;;;;;5033521;28;20084;-71
2022/08/16 06:50:30;;;;;;;12.13;10.82;;;27.90;96.80;;;;;;5033660;28;20061;-70
2022/08/16 06:52:57;;;;;;;15.15;12.10;;;27.50;97.70;;;;;;5019011;28;20038;-71
2022/08/16 06:55:22;;;;;;;14.23;11.15;;;27.20;97.60;;;;;;5014826;28;20057;-70
2022/08/16 06:57:49;;;;;;;14.38;10.45;;;27.10;97.90;;;;;;5014521;28;20041;-71
2022/08/16 07:00:15;;;;;;;14.48;10.73;;;27.50;97.90;;;;;;5014639;28;20355;-71
2022/08/16 07:02:43;;;;;;;13.90;10.50;;;27.70;97.90;;;;;;5014661;28;20049;-71
2022/08/16 07:05:11;;;;;;;13.02;10.93;;;27.90;97.60;;;;;;5014473;28;20052;-70
2022/08/16 07:07:38;;;;;;;20.98;10.18;;;27.60;97.10;;;;;;5029576;28;20120;-70
2022/08/16 07:10:06;;;;;;;13.90;10.55;;;27.20;97.50;;;;;;5034417;28;20049;-70
2022/08/16 07:12:32;;;;;;;13.90;10.75;;;26.70;97.70;;;;;;5036854;28;20048;-70
2022/08/16 07:14:59;;;;;;;20.20;11.20;;;26.50;98.00;;;;;;5037844;28;20042;-70
2022/08/16 07:17:26;;;;;;;15.65;11.45;;;26.30;98.20;;;;;;5037615;28;20049;-71
2022/08/16 07:19:52;;;;;;;15.85;10.98;;;26.10;98.70;;;;;;5037274;28;20056;-70
2022/08/16 07:22:19;;;;;;;15.85;11.52;;;26.00;98.90;;;;;;5036880;28;20451;-71
2022/08/16 07:24:45;;;;;;;15.10;11.30;;;25.90;99.20;;;;;;5037470;28;20033;-71
2022/08/16 07:27:11;;;;;;;16.17;10.50;;;25.80;99.30;;;;;;5036784;28;20041;-71
2022/08/16 07:29:37;;;;;;;16.30;9.65;;;25.80;98.80;;;;;;5035841;28;20386;-70
2022/08/16 07:32:04;;;;;;;13.25;9.38;;;25.80;99.70;;;;;;5046391;28;20064;-73
2022/08/16 07:34:30;;;;;;;15.00;9.57;;;26.10;99.90;;;;;;5055773;28;20068;-72
2022/08/16 07:36:59;;;;;;;14.13;8.77;;;26.60;99.20;;;;;;5036577;28;20052;-72
2022/08/16 07:39:25;;;;;;;9.65;8.00;;;27.50;98.70;;;;;;5037302;28;20052;-71
2022/08/16 07:41:50;;;;;;;14.20;8.98;;;28.30;97.00;;;;;;5037349;28;20049;-71
2022/08/16 07:44:16;;;;;;;12.13;8.32;;;28.80;96.50;;;;;;5037660;28;20442;-72
2022/08/16 07:46:42;;;;;;;17.58;9.70;;;29.30;96.00;;;;;;5037208;28;20156;-72
2022/08/16 07:49:07;;;;;;;10.00;7.85;;;29.80;95.20;;;;;;5036615;28;20045;-72
2022/08/16 07:51:35;;;;;;;11.50;8.65;;;30.00;94.90;;;;;;5037332;28;20052;-71
2022/08/16 07:54:05;;;;;;;10.13;7.75;;;30.50;94.60;;;;;;5037221;28;20053;-71
2022/08/16 07:56:30;;;;;;;12.63;7.72;;;30.80;94.00;;;;;;5036737;28;20042;-72
2022/08/16 07:58:56;;;;;;;9.80;7.47;;;31.20;93.90;;;;;;5036901;28;20064;-70
2022/08/16 08:01:22;;;;;;;13.07;8.32;;;31.00;93.40;;;;;;5036855;28;20038;-69
2022/08/16 08:03:49;;;;;;;13.02;7.63;;;30.30;93.40;;;;;;5036433;28;20058;-69
2022/08/16 08:06:16;;;;;;;11.30;7.43;;;29.50;93.70;;;;;;5036827;28;20049;-69
2022/08/16 08:08:42;;;;;;;11.65;7.63;;;28.80;93.90;;;;;;5036550;28;20056;-72
2022/08/16 08:11:08;;;;;;;12.63;7.25;;;28.30;94.60;;;;;;5036936;28;20128;-71
2022/08/16 08:13:34;;;;;;;10.18;8.07;;;28.30;94.80;;;;;;5036931;28;20354;-71
2022/08/16 08:16:00;;;;;;;15.05;7.53;;;28.80;94.70;;;;;;5036795;28;20037;-71
2022/08/16 08:18:25;;;;;;;10.20;6.85;;;29.50;94.20;;;;;;5018717;28;20050;-72
2022/08/16 08:20:51;;;;;;;11.73;7.22;;;30.10;94.00;;;;;;5036831;28;20045;-71
2022/08/16 08:23:17;;;;;;;9.30;7.03;;;30.80;93.70;;;;;;5036337;28;20087;-72
2022/08/16 08:25:47;;;;;;;7.30;6.55;;;31.10;92.90;;;;;;5036489;28;20037;-72
2022/08/16 08:28:13;;;;;;;10.65;7.15;;;31.30;92.70;;;;;;5036655;28;20049;-70
2022/08/16 08:30:38;;;;;;;9.27;6.47;;;31.60;92.20;;;;;;5036377;28;20053;-70
2022/08/16 08:33:04;;;;;;;14.88;7.88;;;31.90;92.30;;;;;;5001264;28;20358;-69
2022/08/16 08:35:31;;;;;;;10.57;7.10;;;32.00;91.60;;;;;;5035703;28;20049;-70
2022/08/16 08:37:56;;;;;;;10.43;7.10;;;32.20;91.90;;;;;;5036184;28;20053;-69
2022/08/16 08:40:24;;;;;;;8.10;6.72;;;32.50;91.80;;;;;;5036144;28;20430;-70
2022/08/16 08:42:50;;;;;;;9.07;6.93;;;32.50;91.40;;;;;;5036242;28;20056;-69
2022/08/16 08:45:15;;;;;;;11.38;6.20;;;32.60;91.20;;;;;;5035888;28;20049;-69
2022/08/16 08:47:45;;;;;;;11.02;6.00;;;32.50;90.90;;;;;;5036422;28;20476;-69
2022/08/16 08:50:11;;;;;;;9.90;5.97;;;32.50;91.00;;;;;;5035504;28;20438;-69
2022/08/16 08:52:37;;;;;;;8.85;5.90;;;32.60;91.10;;;;;;5036020;28;20139;-69
2022/08/16 08:55:06;;;;;;;9.15;6.03;;;32.50;90.90;;;;;;5036003;28;20478;-69
2022/08/16 08:57:31;;;;;;;8.77;5.60;;;32.40;90.60;;;;;;5035759;28;20102;-69
2022/08/16 08:59:57;;;;;;;9.05;5.63;;;32.40;90.80;;;;;;5035616;28;20037;-69
2022/08/16 09:02:23;;;;;;;8.23;5.20;;;32.30;90.60;;;;;;5035694;28;20042;-69
2022/08/16 09:04:48;;;;;;;7.70;5.28;;;32.10;90.80;;;;;;5017894;28;20053;-70
2022/08/16 09:07:14;;;;;;;6.90;5.25;;;32.00;90.80;;;;;;5035637;28;20041;-69
2022/08/16 09:09:40;;;;;;;10.60;5.13;;;31.90;90.80;;;;;;5035562;28;20128;-69
2022/08/16 09:12:07;;;;;;;8.98;5.07;;;31.40;90.80;;;;;;5035516;28;20151;-70
2022/08/16 09:14:33;;;;;;;8.43;5.20;;;31.10;91.00;;;;;;5035381;28;20048;-69
2022/08/16 09:16:59;;;;;;;8.27;4.90;;;30.90;91.00;;;;;;5035824;28;20114;-69
2022/08/16 09:19:24;;;;;;;11.43;5.00;;;30.50;91.10;;;;;;5035036;28;20498;-69
2022/08/16 09:21:50;;;;;;;7.95;5.10;;;30.30;91.20;;;;;;5035369;28;20049;-69
2022/08/16 09:24:16;;;;;;;6.70;4.95;;;30.10;91.40;;;;;;5035204;28;20063;-69
2022/08/16 09:26:42;;;;;;;11.32;5.35;;;30.00;91.40;;;;;;5035395;28;20068;-70
2022/08/16 09:29:08;;;;;;;8.98;4.93;;;29.90;91.50;;;;;;5034671;28;20053;-70
2022/08/16 09:31:33;;;;;;;8.52;5.70;;;29.80;91.80;;;;;;5035329;28;20053;-70
2022/08/16 09:34:01;;;;;;;10.52;5.40;;;29.90;91.80;;;;;;5034144;28;20117;-70
2022/08/16 09:36:28;;;;;;;8.15;5.00;;;30.10;91.70;;;;;;5018052;28;20057;-70
2022/08/16 09:38:56;;;;;;;7.97;4.97;;;30.40;91.40;;;;;;5035104;28;20095;-70
2022/08/16 09:41:21;;;;;;;9.98;5.20;;;30.70;91.30;;;;;;5017742;28;20053;-70
2022/08/16 09:43:47;;;;;;;8.27;4.60;;;31.10;91.00;;;;;;5034925;28;20057;-70
2022/08/16 09:46:13;;;;;;;7.35;4.53;;;31.50;90.70;;;;;;5034765;28;20384;-71
2022/08/16 09:48:40;;;;;;;6.82;4.35;;;31.70;90.30;;;;;;5034261;28;20041;-70
2022/08/16 09:51:11;;;;;;;5.15;4.22;;;31.70;90.00;;;;;;5035237;28;20060;-70
2022/08/16 09:53:37;;;;;;;6.45;4.78;;;31.50;90.10;;;;;;5035016;28;20045;-70
2022/08/16 09:56:12;;;;;;;6.22;4.75;;;31.20;90.20;;;;;;5034975;28;20045;-72
2022/08/16 09:58:37;;;;;;;8.40;4.60;;;30.70;89.50;;;;;;5035170;28;20065;-70
2022/08/16 10:01:03;;;;;;;5.93;4.13;;;30.30;89.40;;;;;;5034686;28;20053;-70
2022/08/16 10:03:28;;;;;;;8.32;4.30;;;30.10;90.10;;;;;;5034538;28;20065;-71
2022/08/16 10:05:54;;;;;;;6.50;3.70;;;30.00;90.40;;;;;;5034992;28;20092;-70
2022/08/16 10:08:20;;;;;;;7.47;4.00;;;30.00;90.50;;;;;;5035012;28;20104;-71
2022/08/16 10:13:10;;;;;;;7.20;4.30;;;29.90;90.30;;;;;;5034879;28;20045;-70
2022/08/16 10:13:33;;;;;;;8.00;4.43;;;29.90;90.20;;;;;;5034145;28;20045;-70
2022/08/16 10:15:59;;;;;;;9.57;4.38;;;29.90;90.30;;;;;;5017478;28;20049;-71
2022/08/16 10:18:27;;;;;;;9.02;4.38;;;29.80;90.00;;;;;;5034176;28;20034;-71
2022/08/16 10:20:54;;;;;;;7.63;4.60;;;29.80;90.00;;;;;;5034189;28;20473;-72
2022/08/16 10:23:20;;;;;;;6.10;4.40;;;29.80;90.20;;;;;;5034819;28;20060;-70
2022/08/16 10:25:46;;;;;;;6.90;4.50;;;29.90;90.20;;;;;;5034651;28;20128;-71
2022/08/16 10:28:13;;;;;;;6.25;4.60;;;30.10;90.20;;;;;;5034676;28;20045;-70
2022/08/16 10:30:41;;;;;;;10.60;4.97;;;30.10;90.30;;;;;;5034546;28;20054;-70
2022/08/16 10:33:06;;;;;;;8.63;4.30;;;30.20;90.30;;;;;;5034455;28;20038;-71
2022/08/16 10:35:32;;;;;;;7.85;4.50;;;30.30;90.40;;;;;;5034473;28;20099;-70
2022/08/16 10:37:58;;;;;;;7.00;4.40;;;30.30;90.10;;;;;;5034270;28;20046;-71
2022/08/16 10:40:24;;;;;;;9.32;4.15;;;30.40;90.10;;;;;;5034113;28;20449;-70
2022/08/16 10:42:50;;;;;;;8.13;4.18;;;30.50;90.10;;;;;;5034443;28;20091;-70
2022/08/16 10:45:17;;;;;;;8.75;4.20;;;30.50;90.00;;;;;;5035593;28;20084;-70
2022/08/16 10:47:43;;;;;;;8.80;4.43;;;30.50;88.90;;;;;;5038686;28;20092;-70
2022/08/16 10:50:10;;;;;;;7.72;4.70;;;30.70;89.60;;;;;;5037884;28;20088;-71
2022/08/16 10:52:35;;;;;;;6.20;3.97;;;30.70;89.30;;;;;;5038751;28;20060;-69
2022/08/16 10:55:01;;;;;;;8.80;5.07;;;30.70;89.30;;;;;;5037972;28;20049;-70
2022/08/16 10:57:30;;;;;;;7.55;3.88;;;30.70;88.60;;;;;;5038254;28;20365;-70
2022/08/16 10:59:56;;;;;;;5.55;4.32;;;30.80;89.70;;;;;;5038039;28;20049;-70
2022/08/16 11:02:23;;;;;;;8.75;4.45;;;30.80;89.80;;;;;;5037891;28;20044;-70
2022/08/16 11:04:49;;;;;;;6.22;4.60;;;30.90;89.50;;;;;;5037660;28;20037;-70
2022/08/16 11:07:14;;;;;;;11.10;4.78;;;31.00;89.60;;;;;;5020399;28;20072;-71
2022/08/16 11:09:40;;;;;;;8.35;4.93;;;31.10;89.20;;;;;;5038344;28;20053;-71
2022/08/16 11:12:06;;;;;;;11.50;4.65;;;31.00;89.60;;;;;;5037797;28;20045;-70
2022/08/16 11:14:33;;;;;;;8.05;4.30;;;31.10;88.90;;;;;;5038043;28;20049;-71
2022/08/16 11:17:01;;;;;;;9.55;5.75;;;31.20;88.90;;;;;;5037804;28;20037;-70
2022/08/16 11:19:28;;;;;;;8.05;4.80;;;31.20;88.50;;;;;;5037147;28;20359;-70
2022/08/16 11:21:54;;;;;;;6.68;4.32;;;31.20;89.20;;;;;;5037252;28;20342;-70
2022/08/16 11:24:21;;;;;;;10.40;6.13;;;31.20;89.00;;;;;;5038020;28;20050;-70
2022/08/16 11:26:47;;;;;;;11.27;5.88;;;31.20;88.50;;;;;;5037384;28;20057;-70
2022/08/16 11:29:13;;;;;;;8.43;5.88;;;31.10;88.50;;;;;;5037431;28;20038;-71
2022/08/16 11:31:38;;;;;;;7.18;4.40;;;31.10;88.50;;;;;;5037303;28;20130;-71
2022/08/16 11:34:04;;;;;;;7.38;4.15;;;31.10;89.00;;;;;;5037453;28;20057;-71
2022/08/16 11:36:29;;;;;;;6.80;4.75;;;31.20;89.20;;;;;;5036840;28;20083;-70
2022/08/16 11:38:58;;;;;;;7.25;4.47;;;31.00;88.10;;;;;;5037092;28;20052;-70
2022/08/16 11:41:26;;;;;;;7.50;3.90;;;31.10;88.30;;;;;;5037540;28;20060;-71
2022/08/16 11:43:51;;;;;;;9.40;5.00;;;31.20;88.10;;;;;;5037325;28;20424;-71
2022/08/16 11:46:19;;;;;;;6.82;4.40;;;31.20;87.90;;;;;;5037335;28;20136;-71
2022/08/16 11:48:45;;;;;;;7.22;4.50;;;31.30;88.00;;;;;;5037063;28;20050;-71
2022/08/16 11:51:11;;;;;;;6.13;4.20;;;31.40;88.00;;;;;;5036467;28;20050;-71
2022/08/16 11:53:37;;;;;;;5.88;4.20;;;31.50;88.20;;;;;;5037006;28;20053;-71
2022/08/16 11:56:04;;;;;;;7.72;4.30;;;31.50;87.80;;;;;;5036919;28;20038;-71
2022/08/16 11:58:30;;;;;;;5.25;4.15;;;31.50;87.70;;;;;;5036744;28;20101;-70
2022/08/16 12:00:57;;;;;;;13.07;4.75;;;31.50;88.10;;;;;;5036895;28;20061;-71
2022/08/16 12:03:26;;;;;;;6.57;4.40;;;31.40;87.30;;;;;;5037553;28;20124;-71
2022/08/16 12:05:53;;;;;;;6.28;4.55;;;31.50;88.00;;;;;;5036943;28;20353;-70
2022/08/16 12:08:20;;;;;;;10.82;4.47;;;31.40;87.80;;;;;;5036977;28;20038;-70
2022/08/16 12:10:45;;;;;;;5.53;4.07;;;31.50;88.00;;;;;;5037039;28;20366;-71
2022/08/16 12:13:12;;;;;;;6.68;4.90;;;31.60;87.70;;;;;;5036716;28;20041;-71
2022/08/16 12:15:38;;;;;;;7.13;5.10;;;31.70;87.50;;;;;;5036713;28;20041;-71
2022/08/16 12:18:05;;;;;;;7.03;5.00;;;31.80;87.40;;;;;;5036278;28;20128;-70
2022/08/16 12:20:34;;;;;;;8.85;5.07;;;31.90;87.30;;;;;;5036368;28;20045;-71
2022/08/16 12:23:00;;;;;;;8.23;5.35;;;31.90;87.50;;;;;;5035891;28;20048;-70
2022/08/16 12:25:28;;;;;;;7.68;5.40;;;31.80;87.00;;;;;;5036204;28;20049;-70
2022/08/16 12:27:54;;;;;;;9.55;4.90;;;31.90;87.30;;;;;;5036175;28;20061;-70
2022/08/16 12:30:23;;;;;;;6.72;4.88;;;31.90;87.60;;;;;;5036510;28;20393;-71